Time;durP1;ratioP1;P1;durP2;ratioP2;P2;SDS_P1;SDS_P2;PMS_P1;PMS_P2;Temp;Humidity;BMP_temperature;BMP_pressure;BME280_temperature;BME280_humidity;BME280_pressure;Samples;Min_cycle;Max_cycle;Signal;HPM_P1;HPM_P2
2022/03/25 00:00:45;;;;;;;116.88;76.07;;;6.90;96.40;;;;;;5007456;28;20352;-53
2022/03/25 00:03:11;;;;;;;110.32;74.45;;;6.90;96.80;;;;;;4996652;28;20038;-53
2022/03/25 00:05:37;;;;;;;100.07;65.53;;;6.80;97.10;;;;;;5005508;28;20042;-52
2022/03/25 00:08:02;;;;;;;112.43;71.13;;;6.80;96.90;;;;;;5007333;28;20042;-52
2022/03/25 00:10:28;;;;;;;100.32;67.35;;;6.70;96.80;;;;;;5008185;28;20044;-51
2022/03/25 00:12:54;;;;;;;104.97;70.25;;;6.70;96.70;;;;;;5008093;28;20038;-52
2022/03/25 00:15:20;;;;;;;100.95;66.60;;;6.60;96.90;;;;;;5007712;28;20038;-53
2022/03/25 00:17:45;;;;;;;102.57;64.40;;;6.50;97.00;;;;;;5007809;28;20116;-55
2022/03/25 00:20:11;;;;;;;100.60;65.78;;;6.50;96.70;;;;;;5007756;28;20762;-49
2022/03/25 00:22:37;;;;;;;90.28;59.80;;;6.50;96.60;;;;;;5007498;28;20071;-53
2022/03/25 00:25:06;;;;;;;77.72;53.25;;;6.30;96.20;;;;;;5007625;28;20034;-51
2022/03/25 00:27:35;;;;;;;88.82;58.20;;;6.20;94.90;;;;;;5006307;28;20049;-51
2022/03/25 00:30:01;;;;;;;75.10;51.75;;;6.00;95.00;;;;;;5006979;28;20050;-53
2022/03/25 00:32:27;;;;;;;80.50;49.47;;;5.90;94.80;;;;;;5007278;28;20038;-53
2022/03/25 00:34:53;;;;;;;75.90;52.20;;;5.70;93.90;;;;;;5001874;28;20092;-51
2022/03/25 00:37:19;;;;;;;78.97;53.75;;;5.60;94.30;;;;;;4987779;28;20057;-52
2022/03/25 00:39:45;;;;;;;83.88;54.70;;;5.50;94.80;;;;;;4987825;28;20034;-55
2022/03/25 00:42:12;;;;;;;92.10;59.50;;;5.50;95.20;;;;;;5001068;28;20034;-54
2022/03/25 00:44:38;;;;;;;83.90;56.65;;;5.40;95.50;;;;;;5004645;28;20042;-50
2022/03/25 00:47:04;;;;;;;80.68;54.80;;;5.40;95.70;;;;;;5005746;28;20042;-54
2022/03/25 00:49:30;;;;;;;77.88;55.40;;;5.30;95.60;;;;;;5000273;28;20049;-54
2022/03/25 00:51:56;;;;;;;87.30;57.97;;;5.30;95.60;;;;;;4991425;28;20041;-55
2022/03/25 00:54:22;;;;;;;82.65;56.42;;;5.30;95.60;;;;;;5001060;28;20054;-55
2022/03/25 00:56:48;;;;;;;86.88;58.05;;;5.20;95.60;;;;;;4996121;28;20109;-55
2022/03/25 00:59:14;;;;;;;87.50;57.47;;;5.20;95.90;;;;;;5001355;28;20026;-55
2022/03/25 01:01:40;;;;;;;;;;;5.10;96.20;;;;;;5011895;28;20277;-55
2022/03/25 01:04:08;;;;;;;91.80;59.08;;;5.10;96.80;;;;;;5011353;28;19917;-55
2022/03/25 01:06:34;;;;;;;83.15;56.70;;;5.00;96.80;;;;;;5010757;28;20410;-53
2022/03/25 01:09:00;;;;;;;72.97;49.15;;;5.00;97.00;;;;;;5010908;28;20045;-54
2022/03/25 01:11:26;;;;;;;75.10;52.47;;;5.00;96.90;;;;;;4997785;28;20046;-54
2022/03/25 01:13:52;;;;;;;72.25;51.00;;;4.90;97.20;;;;;;4991015;28;20118;-54
2022/03/25 01:16:17;;;;;;;65.13;49.00;;;4.90;97.10;;;;;;4991079;28;20117;-55
2022/03/25 01:18:43;;;;;;;63.87;46.53;;;4.90;96.80;;;;;;4991498;28;20694;-55
2022/03/25 01:21:09;;;;;;;57.40;41.27;;;4.80;96.80;;;;;;4991214;28;20137;-53
2022/03/25 01:23:34;;;;;;;59.88;45.13;;;4.70;97.10;;;;;;4991701;28;20488;-54
2022/03/25 01:26:00;;;;;;;63.67;45.67;;;4.70;97.30;;;;;;4990787;28;20038;-50
2022/03/25 01:28:25;;;;;;;68.50;47.40;;;4.70;97.60;;;;;;4991264;28;20093;-51
2022/03/25 01:30:51;;;;;;;56.37;42.63;;;4.70;98.10;;;;;;4990997;28;20042;-52
2022/03/25 01:33:18;;;;;;;59.87;43.97;;;4.70;98.00;;;;;;4991281;28;20047;-51
2022/03/25 01:35:43;;;;;;;63.83;44.60;;;4.60;97.80;;;;;;4990489;28;20496;-50
2022/03/25 01:38:09;;;;;;;64.27;45.57;;;4.60;97.80;;;;;;4991010;28;20065;-51
2022/03/25 01:40:35;;;;;;;62.10;44.77;;;4.60;98.00;;;;;;4990813;28;20037;-50
2022/03/25 01:43:01;;;;;;;61.17;45.10;;;4.60;98.30;;;;;;4990688;28;20129;-50
2022/03/25 01:45:32;;;;;;;68.93;45.88;;;4.60;98.40;;;;;;4990919;28;20053;-51
2022/03/25 01:47:58;;;;;;;63.67;46.78;;;4.50;98.80;;;;;;5003705;28;20061;-53
2022/03/25 01:50:24;;;;;;;71.85;49.53;;;4.50;98.80;;;;;;5009408;28;20045;-50
2022/03/25 01:52:51;;;;;;;67.78;48.08;;;4.50;98.90;;;;;;5010950;28;20117;-51
2022/03/25 01:55:26;;;;;;;61.50;44.05;;;4.50;99.20;;;;;;5010910;28;20582;-50
2022/03/25 01:57:57;;;;;;;55.15;42.28;;;4.40;99.40;;;;;;5008290;28;20045;-51
2022/03/25 02:00:23;;;;;;;48.13;38.28;;;4.40;99.30;;;;;;5009257;28;20052;-52
2022/03/25 02:02:49;;;;;;;;;;;4.30;98.60;;;;;;4998790;28;20037;-49
2022/03/25 02:05:16;;;;;;;50.42;39.72;;;4.20;98.50;;;;;;5007371;28;19940;-51
2022/03/25 02:07:41;;;;;;;;;;;4.10;98.40;;;;;;5001866;28;20522;-50
2022/03/25 02:10:07;;;;;;;48.20;37.90;;;4.00;98.60;;;;;;5004119;28;20321;-50
2022/03/25 02:12:35;;;;;;;54.72;40.35;;;3.90;98.30;;;;;;4997243;28;20038;-50
2022/03/25 02:15:01;;;;;;;68.80;40.72;;;3.90;98.30;;;;;;5015872;28;20072;-51
2022/03/25 02:17:27;;;;;;;53.88;40.05;;;3.70;98.70;;;;;;5016348;28;20403;-51
2022/03/25 02:19:52;;;;;;;60.90;42.67;;;3.60;98.90;;;;;;5016867;28;20044;-52
2022/03/25 02:22:18;;;;;;;168.67;44.30;;;3.50;99.40;;;;;;5016487;28;20038;-50
2022/03/25 02:24:43;;;;;;;162.40;44.67;;;3.40;99.50;;;;;;5015997;28;20463;-50
2022/03/25 02:27:12;;;;;;;87.23;42.63;;;3.30;99.90;;;;;;4997823;28;20526;-50
2022/03/25 02:29:39;;;;;;;157.82;48.28;;;3.10;99.90;;;;;;4997121;28;20052;-50
2022/03/25 02:32:05;;;;;;;86.10;43.10;;;2.90;99.90;;;;;;4997016;28;20305;-51
2022/03/25 02:34:31;;;;;;;78.20;43.22;;;2.80;99.90;;;;;;4996751;28;20050;-53
2022/03/25 02:36:57;;;;;;;104.60;47.00;;;2.80;99.90;;;;;;4996623;28;20542;-51
2022/03/25 02:39:23;;;;;;;95.43;46.17;;;2.70;99.90;;;;;;4995388;28;20074;-50
2022/03/25 02:41:49;;;;;;;;;;;2.70;99.90;;;;;;4997597;28;20085;-54
2022/03/25 02:44:15;;;;;;;78.80;45.90;;;2.80;99.90;;;;;;4996820;28;20394;-52
2022/03/25 02:46:40;;;;;;;66.53;43.23;;;2.80;99.90;;;;;;4996862;28;20046;-50
2022/03/25 02:49:06;;;;;;;83.47;43.33;;;2.80;99.90;;;;;;4996727;28;20530;-52
2022/03/25 02:51:31;;;;;;;92.50;45.87;;;2.90;99.90;;;;;;4997348;28;20534;-51
2022/03/25 02:53:57;;;;;;;60.33;45.47;;;2.80;99.90;;;;;;4996227;28;20133;-50
2022/03/25 02:56:24;;;;;;;75.10;45.80;;;2.90;99.90;;;;;;4996683;28;20328;-54
2022/03/25 02:58:50;;;;;;;79.60;45.53;;;2.90;99.90;;;;;;4995440;28;20061;-51
2022/03/25 03:01:16;;;;;;;61.22;46.88;;;2.90;99.90;;;;;;4996853;28;20404;-54
2022/03/25 03:03:42;;;;;;;61.90;45.67;;;2.90;99.90;;;;;;5015388;28;20042;-51
2022/03/25 03:06:07;;;;;;;112.80;49.97;;;2.90;99.90;;;;;;5015975;28;20065;-53
2022/03/25 03:08:35;;;;;;;93.00;48.60;;;3.00;99.90;;;;;;5015723;28;20041;-54
2022/03/25 03:11:01;;;;;;;99.88;47.42;;;2.90;99.90;;;;;;5016060;28;20056;-51
2022/03/25 03:13:27;;;;;;;;;;;2.90;99.90;;;;;;5014080;28;20105;-53
2022/03/25 03:15:53;;;;;;;253.55;52.25;;;2.90;99.90;;;;;;5012547;28;19965;-53
2022/03/25 03:18:20;;;;;;;154.18;50.60;;;2.90;99.90;;;;;;5011708;28;20103;-53
2022/03/25 03:20:46;;;;;;;329.63;56.47;;;2.90;99.90;;;;;;4997699;28;20054;-54
2022/03/25 03:23:11;;;;;;;215.07;57.25;;;2.90;99.90;;;;;;5004587;28;20052;-52
2022/03/25 03:25:37;;;;;;;257.97;57.10;;;2.90;99.90;;;;;;4992407;28;20034;-52
2022/03/25 03:28:04;;;;;;;323.00;57.13;;;2.90;99.90;;;;;;4999290;28;20040;-55
2022/03/25 03:30:30;;;;;;;195.95;57.45;;;2.90;99.90;;;;;;5011960;28;20056;-52
2022/03/25 03:32:57;;;;;;;277.92;59.13;;;2.90;99.90;;;;;;5012294;28;20116;-54
2022/03/25 03:35:25;;;;;;;339.65;62.85;;;2.90;99.90;;;;;;5012377;28;20073;-55
2022/03/25 03:37:51;;;;;;;221.70;55.72;;;2.90;99.90;;;;;;5013107;28;20053;-51
2022/03/25 03:40:17;;;;;;;215.50;55.22;;;2.90;99.90;;;;;;5006629;28;20472;-53
2022/03/25 03:42:43;;;;;;;312.80;59.03;;;2.90;99.90;;;;;;4993590;28;20092;-50
2022/03/25 03:45:10;;;;;;;399.60;60.33;;;3.00;99.90;;;;;;4992704;28;20042;-50
2022/03/25 03:47:36;;;;;;;102.35;52.30;;;3.00;99.90;;;;;;4992980;28;20781;-50
2022/03/25 03:50:04;;;;;;;302.92;59.70;;;2.90;99.90;;;;;;4992536;28;20071;-51
2022/03/25 03:52:30;;;;;;;249.90;54.70;;;3.00;99.90;;;;;;4993061;28;20038;-50
2022/03/25 03:54:55;;;;;;;246.55;57.80;;;2.90;99.90;;;;;;4991176;28;20042;-52
2022/03/25 03:57:21;;;;;;;105.47;48.57;;;2.90;99.90;;;;;;4992696;28;20093;-51
2022/03/25 03:59:47;;;;;;;333.90;59.67;;;2.90;99.90;;;;;;4992838;28;20118;-51
2022/03/25 04:02:12;;;;;;;227.70;59.27;;;2.90;99.90;;;;;;4992759;28;20269;-50
2022/03/25 04:04:38;;;;;;;114.50;52.47;;;2.90;99.90;;;;;;4992059;28;20107;-51
2022/03/25 04:07:03;;;;;;;92.87;54.17;;;3.00;99.90;;;;;;4992638;28;20069;-50
2022/03/25 04:09:29;;;;;;;361.02;60.83;;;3.00;99.90;;;;;;4992878;28;20042;-50
2022/03/25 04:11:55;;;;;;;336.97;60.23;;;3.00;99.90;;;;;;4992580;28;20038;-48
2022/03/25 04:14:21;;;;;;;305.37;61.17;;;3.10;99.90;;;;;;4992526;28;20038;-50
2022/03/25 04:16:47;;;;;;;;;;;3.10;99.90;;;;;;4998579;28;20046;-51
2022/03/25 04:19:13;;;;;;;308.85;58.95;;;3.10;99.90;;;;;;5011792;28;19918;-51
2022/03/25 04:21:39;;;;;;;220.18;59.42;;;3.10;99.90;;;;;;5011755;28;20042;-52
2022/03/25 04:24:05;;;;;;;232.35;61.72;;;3.10;99.90;;;;;;5009955;28;20121;-50
2022/03/25 04:26:31;;;;;;;249.55;60.95;;;3.20;99.90;;;;;;5009634;28;20038;-50
2022/03/25 04:28:57;;;;;;;214.02;59.47;;;3.20;99.90;;;;;;5010176;28;20044;-50
2022/03/25 04:31:22;;;;;;;269.10;60.73;;;3.20;99.90;;;;;;4995515;28;20499;-50
2022/03/25 04:33:48;;;;;;;241.27;57.77;;;3.20;99.90;;;;;;5011023;28;20038;-51
2022/03/25 04:36:14;;;;;;;210.90;57.17;;;3.20;99.90;;;;;;5009427;28;20427;-51
2022/03/25 04:38:40;;;;;;;168.85;58.60;;;3.20;99.90;;;;;;5000774;28;20073;-51
2022/03/25 04:41:09;;;;;;;;;;;3.20;99.90;;;;;;5012275;28;20038;-50
2022/03/25 04:43:38;;;;;;;274.83;56.53;;;3.30;99.90;;;;;;4999669;28;19925;-51
2022/03/25 04:46:05;;;;;;;187.98;55.17;;;3.30;99.90;;;;;;4991591;28;20398;-50
2022/03/25 04:48:31;;;;;;;178.82;54.42;;;3.20;99.90;;;;;;4991266;28;20125;-50
2022/03/25 04:50:57;;;;;;;182.00;56.42;;;3.20;99.90;;;;;;4992043;28;20121;-50
2022/03/25 04:53:22;;;;;;;155.03;53.40;;;3.20;99.90;;;;;;4991745;28;20121;-52
2022/03/25 04:55:48;;;;;;;204.77;57.43;;;3.20;99.90;;;;;;5003762;28;20284;-49
2022/03/25 04:58:14;;;;;;;97.47;53.17;;;3.20;99.90;;;;;;5011107;28;20099;-54
2022/03/25 05:00:41;;;;;;;97.45;52.75;;;3.20;99.90;;;;;;5011296;28;20076;-50
2022/03/25 05:03:06;;;;;;;156.75;57.92;;;3.20;99.90;;;;;;5010613;28;20072;-51
2022/03/25 05:05:32;;;;;;;117.20;53.50;;;3.20;99.90;;;;;;5010717;28;20034;-54
2022/03/25 05:07:58;;;;;;;97.78;54.25;;;3.20;99.90;;;;;;5010865;28;20096;-51
2022/03/25 05:10:24;;;;;;;173.25;54.50;;;3.20;99.90;;;;;;5011488;28;20040;-50
2022/03/25 05:12:50;;;;;;;97.63;53.80;;;3.30;99.90;;;;;;5010937;28;20105;-52
2022/03/25 05:15:15;;;;;;;125.30;54.35;;;3.30;99.90;;;;;;5010989;28;20030;-53
2022/03/25 05:17:51;;;;;;;113.20;54.17;;;3.30;99.90;;;;;;5010442;28;20038;-52
2022/03/25 05:20:18;;;;;;;174.77;55.28;;;3.30;99.90;;;;;;5011174;28;20501;-52
2022/03/25 05:22:45;;;;;;;164.60;55.75;;;3.30;99.90;;;;;;5010713;28;20049;-54
2022/03/25 05:25:10;;;;;;;105.97;51.60;;;3.30;99.90;;;;;;5010634;28;20034;-51
2022/03/25 05:27:48;;;;;;;90.37;53.83;;;3.20;99.90;;;;;;5010687;28;20046;-55
2022/03/25 05:30:15;;;;;;;115.30;54.70;;;3.30;99.90;;;;;;5010692;28;20050;-54
2022/03/25 05:32:42;;;;;;;183.18;56.72;;;3.30;99.90;;;;;;4995404;28;20042;-53
2022/03/25 05:35:09;;;;;;;150.40;54.63;;;3.30;99.90;;;;;;4989596;28;20064;-54
2022/03/25 05:37:35;;;;;;;181.70;56.67;;;3.30;99.90;;;;;;4990324;28;20081;-54
2022/03/25 05:40:01;;;;;;;;;;;3.30;99.90;;;;;;4993750;28;20026;-54
2022/03/25 05:42:26;;;;;;;152.70;52.40;;;3.30;99.90;;;;;;4999280;28;20402;-54
2022/03/25 05:44:52;;;;;;;112.33;51.70;;;3.20;99.90;;;;;;5009798;28;20045;-53
2022/03/25 05:47:17;;;;;;;108.80;50.90;;;3.30;99.90;;;;;;4997107;28;20269;-54
2022/03/25 05:49:43;;;;;;;122.07;53.33;;;3.30;99.90;;;;;;4990857;28;20042;-54
2022/03/25 05:52:08;;;;;;;136.07;53.13;;;3.30;99.90;;;;;;4991171;28;20092;-52
2022/03/25 05:54:34;;;;;;;71.67;48.83;;;3.30;99.90;;;;;;4990696;28;20049;-53
2022/03/25 05:57:00;;;;;;;84.27;51.20;;;3.30;99.90;;;;;;4990752;28;20041;-48
2022/03/25 05:59:25;;;;;;;128.10;52.57;;;3.30;99.90;;;;;;5003406;28;20605;-50
2022/03/25 06:01:51;;;;;;;125.03;51.23;;;3.30;99.90;;;;;;5010494;28;20503;-50
2022/03/25 06:04:16;;;;;;;112.23;52.17;;;3.30;99.90;;;;;;5010549;28;20038;-55
2022/03/25 06:06:42;;;;;;;145.00;52.63;;;3.30;99.90;;;;;;5009990;28;20042;-50
2022/03/25 06:09:07;;;;;;;100.13;51.77;;;3.30;99.90;;;;;;5010123;28;20048;-51
2022/03/25 06:11:33;;;;;;;91.93;47.77;;;3.30;99.90;;;;;;5010218;28;20041;-50
2022/03/25 06:13:58;;;;;;;73.17;50.60;;;3.40;99.90;;;;;;5009880;28;20046;-52
2022/03/25 06:16:24;;;;;;;203.67;55.10;;;3.40;99.90;;;;;;5009867;28;20034;-51
2022/03/25 06:18:50;;;;;;;144.63;51.47;;;3.40;99.90;;;;;;5010198;28;20403;-53
2022/03/25 06:21:16;;;;;;;87.17;48.20;;;3.40;99.90;;;;;;5010170;28;20041;-50
2022/03/25 06:23:42;;;;;;;94.68;48.78;;;3.50;99.90;;;;;;5010204;28;20280;-50
2022/03/25 06:26:08;;;;;;;79.37;48.27;;;3.50;99.90;;;;;;5008423;28;20038;-49
2022/03/25 06:28:35;;;;;;;74.57;47.60;;;3.50;99.90;;;;;;5009824;28;20053;-49
2022/03/25 06:31:01;;;;;;;101.70;50.72;;;3.60;99.90;;;;;;5010156;28;20124;-50
2022/03/25 06:33:26;;;;;;;95.45;51.83;;;3.60;99.90;;;;;;5010125;28;20100;-50
2022/03/25 06:35:52;;;;;;;86.47;50.37;;;3.70;99.90;;;;;;4995924;28;20078;-50
2022/03/25 06:38:18;;;;;;;104.53;50.50;;;3.70;99.90;;;;;;4990427;28;20046;-50
2022/03/25 06:40:44;;;;;;;;;;;3.70;99.90;;;;;;4990777;28;20038;-50
2022/03/25 06:43:09;;;;;;;98.05;49.85;;;3.70;99.90;;;;;;5006091;28;19927;-51
2022/03/25 06:45:35;;;;;;;106.10;50.13;;;3.80;99.90;;;;;;4993472;28;20514;-52
2022/03/25 06:48:01;;;;;;;87.32;49.90;;;3.80;99.90;;;;;;4990813;28;20042;-51
2022/03/25 06:50:27;;;;;;;90.88;47.85;;;3.80;99.90;;;;;;5005662;28;20049;-51
2022/03/25 06:52:54;;;;;;;128.07;50.33;;;3.90;99.90;;;;;;5000015;28;20042;-50
2022/03/25 06:55:20;;;;;;;86.95;48.03;;;3.90;99.90;;;;;;4999889;28;20043;-49
2022/03/25 06:57:46;;;;;;;67.78;47.42;;;3.90;99.90;;;;;;4993605;28;20057;-50
2022/03/25 07:00:12;;;;;;;;;;;3.90;99.90;;;;;;5014044;28;20530;-49
2022/03/25 07:02:39;;;;;;;70.15;47.35;;;4.00;99.90;;;;;;5013669;28;19917;-51
2022/03/25 07:05:05;;;;;;;78.13;52.00;;;4.00;99.90;;;;;;5013084;28;20046;-54
2022/03/25 07:07:33;;;;;;;75.32;50.38;;;4.10;99.90;;;;;;5012125;28;20069;-52
2022/03/25 07:09:59;;;;;;;72.88;48.83;;;4.20;99.90;;;;;;5011129;28;20099;-51
2022/03/25 07:12:25;;;;;;;76.60;49.92;;;4.20;99.90;;;;;;4993739;28;20124;-54
2022/03/25 07:14:50;;;;;;;74.20;48.77;;;4.30;99.90;;;;;;4993528;28;20049;-52
2022/03/25 07:17:16;;;;;;;69.20;48.80;;;4.40;99.90;;;;;;4993405;28;20559;-51
2022/03/25 07:19:42;;;;;;;68.13;47.83;;;4.60;99.90;;;;;;5001150;28;20034;-53
2022/03/25 07:22:07;;;;;;;67.37;47.43;;;4.70;99.90;;;;;;5002176;28;20070;-54
2022/03/25 07:24:33;;;;;;;67.03;48.20;;;4.80;99.90;;;;;;5002085;28;20038;-52
2022/03/25 07:26:59;;;;;;;70.53;50.30;;;5.10;99.90;;;;;;5003745;28;20037;-54
2022/03/25 07:29:24;;;;;;;69.83;47.63;;;5.20;99.90;;;;;;5000513;28;20042;-54
2022/03/25 07:31:50;;;;;;;66.20;48.03;;;5.40;99.90;;;;;;5002922;28;20038;-53
2022/03/25 07:34:15;;;;;;;63.77;44.87;;;5.70;99.90;;;;;;4998488;28;20080;-55
2022/03/25 07:36:41;;;;;;;63.90;45.20;;;5.80;99.90;;;;;;4992905;28;20409;-52
2022/03/25 07:39:07;;;;;;;66.93;46.80;;;6.00;99.90;;;;;;4995337;28;20042;-53
2022/03/25 07:41:34;;;;;;;70.22;47.08;;;6.20;99.90;;;;;;5002153;28;20577;-50
2022/03/25 07:43:59;;;;;;;;;;;6.40;99.90;;;;;;5007394;28;20450;-51
2022/03/25 07:46:25;;;;;;;66.80;47.83;;;6.60;99.90;;;;;;5012439;28;19921;-55
2022/03/25 07:48:51;;;;;;;75.45;50.55;;;6.70;99.90;;;;;;4992864;28;20057;-54
2022/03/25 07:51:17;;;;;;;70.70;50.05;;;6.90;99.90;;;;;;4993037;28;20034;-54
2022/03/25 07:53:43;;;;;;;69.45;49.47;;;7.10;99.90;;;;;;4992458;28;20505;-54
2022/03/25 07:56:09;;;;;;;67.93;48.60;;;7.30;99.90;;;;;;5005404;28;20037;-55
2022/03/25 07:58:35;;;;;;;71.22;49.65;;;7.40;99.90;;;;;;4999534;28;20061;-55
2022/03/25 08:01:00;;;;;;;75.57;51.60;;;7.60;99.90;;;;;;5005590;28;20428;-53
2022/03/25 08:03:26;;;;;;;73.20;50.00;;;7.80;99.90;;;;;;5003408;28;20041;-54
2022/03/25 08:05:52;;;;;;;70.30;50.60;;;7.90;99.90;;;;;;5011116;28;20513;-53
2022/03/25 08:08:21;;;;;;;72.22;51.00;;;8.10;99.90;;;;;;5012305;28;20488;-52
2022/03/25 08:10:47;;;;;;;74.43;52.42;;;8.30;99.90;;;;;;5002429;28;20038;-54
2022/03/25 08:13:15;;;;;;;70.43;49.33;;;8.50;99.90;;;;;;4993641;28;20506;-50
2022/03/25 08:15:41;;;;;;;66.53;46.92;;;8.60;99.90;;;;;;4997729;28;20080;-50
2022/03/25 08:18:10;;;;;;;69.47;49.77;;;8.70;99.90;;;;;;5010181;28;20030;-52
2022/03/25 08:20:41;;;;;;;71.88;51.33;;;8.80;99.90;;;;;;5010794;28;20042;-50
2022/03/25 08:23:11;;;;;;;71.20;49.42;;;9.00;99.90;;;;;;5009557;28;20065;-53
2022/03/25 08:28:22;;;;;;;70.53;49.33;;;9.20;99.90;;;;;;4993361;28;20121;-50
2022/03/25 08:30:48;;;;;;;70.80;49.67;;;9.30;99.90;;;;;;5001013;28;20554;-52
2022/03/25 08:33:14;;;;;;;68.35;49.65;;;9.40;99.90;;;;;;5007211;28;20049;-51
2022/03/25 08:35:40;;;;;;;90.13;52.05;;;9.50;99.90;;;;;;4991334;28;20144;-50
2022/03/25 08:38:06;;;;;;;;;;;9.70;99.90;;;;;;4993495;28;20088;-50
2022/03/25 08:40:34;;;;;;;72.53;49.00;;;9.80;99.90;;;;;;5002625;28;20341;-50
2022/03/25 08:43:01;;;;;;;61.08;44.15;;;9.90;99.90;;;;;;5005547;28;20551;-51
2022/03/25 08:45:28;;;;;;;62.75;45.08;;;10.00;99.90;;;;;;4991476;28;20554;-52
2022/03/25 08:47:54;;;;;;;69.85;48.88;;;10.20;99.90;;;;;;4994972;28;20162;-51
2022/03/25 08:50:22;;;;;;;59.58;43.53;;;10.40;99.90;;;;;;5008236;28;20093;-52
2022/03/25 08:52:48;;;;;;;60.42;42.47;;;10.50;99.90;;;;;;5001673;28;20037;-50
2022/03/25 08:55:16;;;;;;;61.83;43.53;;;10.70;99.90;;;;;;5009050;28;20053;-52
2022/03/25 08:57:42;;;;;;;61.50;43.22;;;10.90;99.90;;;;;;4998969;28;20045;-51
2022/03/25 09:00:10;;;;;;;61.45;43.15;;;11.00;99.90;;;;;;5001571;28;20041;-52
2022/03/25 09:02:37;;;;;;;63.85;43.67;;;11.20;99.90;;;;;;4990368;28;20038;-50
2022/03/25 09:05:03;;;;;;;;;;;11.30;99.70;;;;;;4994485;28;20084;-51
2022/03/25 09:07:29;;;;;;;65.30;42.58;;;11.50;98.80;;;;;;5010839;28;19947;-51
2022/03/25 09:09:55;;;;;;;61.97;42.47;;;11.60;98.90;;;;;;5008662;28;20050;-52
2022/03/25 09:12:20;;;;;;;58.42;41.97;;;11.80;98.60;;;;;;4990496;28;20042;-53
2022/03/25 09:14:46;;;;;;;61.43;40.13;;;11.80;98.00;;;;;;4990976;28;20060;-52
2022/03/25 09:17:12;;;;;;;64.73;44.17;;;12.00;98.10;;;;;;5010264;28;20064;-54
2022/03/25 09:19:37;;;;;;;65.37;45.07;;;12.20;97.50;;;;;;5010822;28;20261;-52
2022/03/25 09:22:03;;;;;;;65.70;43.93;;;12.30;97.50;;;;;;5009113;28;20331;-55
2022/03/25 09:24:29;;;;;;;57.53;41.67;;;12.40;96.90;;;;;;5002511;28;20100;-53
2022/03/25 09:26:55;;;;;;;64.47;43.05;;;12.50;96.40;;;;;;4991148;28;20089;-52
2022/03/25 09:29:21;;;;;;;59.25;41.45;;;12.50;95.80;;;;;;4995422;28;20529;-55
2022/03/25 09:31:46;;;;;;;61.10;43.47;;;12.60;96.10;;;;;;5008674;28;20041;-54
2022/03/25 09:36:57;;;;;;;64.03;42.83;;;12.80;95.50;;;;;;5009020;28;20483;-54
2022/03/25 09:39:22;;;;;;;60.38;42.15;;;12.90;95.40;;;;;;5009714;28;20034;-54
2022/03/25 09:41:49;;;;;;;62.75;43.58;;;13.00;94.90;;;;;;5004817;28;20439;-56
2022/03/25 09:44:16;;;;;;;58.03;41.85;;;13.10;94.60;;;;;;4990322;28;20030;-55
2022/03/25 09:46:42;;;;;;;58.53;41.92;;;13.20;94.70;;;;;;5008500;28;20048;-56
2022/03/25 09:49:08;;;;;;;;;;;13.30;94.10;;;;;;5008063;28;20045;-54
2022/03/25 09:51:35;;;;;;;58.67;42.13;;;13.40;93.80;;;;;;4990215;28;19921;-56
2022/03/25 09:54:01;;;;;;;64.97;42.22;;;13.50;93.60;;;;;;5009150;28;20128;-57
2022/03/25 09:56:27;;;;;;;62.42;44.00;;;13.50;93.40;;;;;;5010042;28;20500;-55
2022/03/25 09:58:53;;;;;;;58.13;40.55;;;13.60;92.70;;;;;;5009168;28;20037;-55
2022/03/25 10:01:19;;;;;;;59.83;38.33;;;13.70;93.10;;;;;;4997636;28;20046;-56
2022/03/25 10:03:44;;;;;;;;;;;13.80;92.70;;;;;;5006753;28;20289;-56
2022/03/25 10:06:12;;;;;;;61.95;40.92;;;13.90;91.90;;;;;;4998603;28;19940;-56
2022/03/25 10:08:42;;;;;;;63.67;41.13;;;14.10;92.10;;;;;;4990531;28;20042;-57
2022/03/25 10:11:24;;;;;;;57.22;39.78;;;14.20;91.20;;;;;;5000659;28;20446;-56
2022/03/25 10:14:17;;;;;;;58.97;41.63;;;14.40;91.40;;;;;;5008450;28;20046;-57
2022/03/25 10:16:45;;;;;;;56.75;40.05;;;14.50;90.60;;;;;;5009848;28;20046;-57
2022/03/25 10:19:11;;;;;;;65.82;41.97;;;14.60;90.30;;;;;;4996493;28;20065;-57
2022/03/25 10:21:57;;;;;;;54.67;38.15;;;14.70;89.30;;;;;;4990507;28;20078;-56
2022/03/25 10:25:01;;;;;;;56.97;38.05;;;14.80;88.00;;;;;;5009245;28;20084;-56
2022/03/25 10:27:29;;;;;;;52.22;38.20;;;14.90;88.80;;;;;;4975120;28;20057;-52
2022/03/25 10:29:55;;;;;;;62.65;39.50;;;15.00;87.80;;;;;;4991733;28;20426;-54
2022/03/25 10:32:26;;;;;;;56.25;39.78;;;15.10;87.30;;;;;;4991494;28;20062;-55
2022/03/25 10:35:06;;;;;;;59.42;40.78;;;15.20;87.20;;;;;;5013269;28;20069;-56
2022/03/25 10:37:33;;;;;;;56.75;38.88;;;15.40;86.70;;;;;;5013297;28;20049;-56
2022/03/25 10:39:58;;;;;;;60.88;40.70;;;15.40;86.60;;;;;;5003439;28;20061;-55
2022/03/25 10:42:24;;;;;;;55.83;36.67;;;15.50;85.80;;;;;;4992674;28;20488;-53
2022/03/25 10:44:50;;;;;;;50.22;36.80;;;15.60;84.20;;;;;;4993612;28;20046;-54
2022/03/25 10:47:15;;;;;;;50.95;36.08;;;15.70;83.70;;;;;;4994443;28;20039;-57
2022/03/25 10:49:46;;;;;;;54.42;39.55;;;15.70;82.00;;;;;;5001180;28;20547;-57
2022/03/25 10:52:30;;;;;;;62.00;38.65;;;15.80;82.10;;;;;;4994381;28;20046;-53
2022/03/25 10:55:20;;;;;;;54.40;36.15;;;15.90;81.00;;;;;;5002650;28;20041;-56
2022/03/25 10:57:58;;;;;;;59.15;37.42;;;16.00;81.00;;;;;;5013466;28;20046;-53
2022/03/25 11:00:24;;;;;;;57.33;36.97;;;16.10;80.20;;;;;;5011312;28;20037;-54
2022/03/25 11:02:50;;;;;;;56.10;37.33;;;16.20;80.50;;;;;;5004129;28;20037;-54
2022/03/25 11:05:17;;;;;;;56.20;36.83;;;16.30;80.20;;;;;;5012891;28;20033;-54
2022/03/25 11:07:44;;;;;;;55.33;35.75;;;16.40;79.60;;;;;;5012948;28;20099;-53
2022/03/25 11:10:14;;;;;;;49.17;35.78;;;16.40;78.90;;;;;;5013313;28;20458;-53
2022/03/25 11:12:47;;;;;;;55.33;35.92;;;16.50;77.80;;;;;;5013712;28;20077;-53
2022/03/25 11:15:15;;;;;;;55.42;37.80;;;16.60;77.10;;;;;;5012791;28;20054;-56
2022/03/25 11:17:42;;;;;;;58.55;36.78;;;16.60;77.50;;;;;;5013052;28;20069;-53
2022/03/25 11:20:12;;;;;;;56.75;36.42;;;16.70;77.20;;;;;;5011383;28;20038;-56
2022/03/25 11:22:42;;;;;;;52.80;37.67;;;16.70;76.50;;;;;;5013183;28;20030;-54
2022/03/25 11:25:10;;;;;;;54.47;37.75;;;16.70;76.00;;;;;;5012664;28;20500;-53
2022/03/25 11:27:38;;;;;;;50.47;35.72;;;16.80;75.00;;;;;;5013108;28;20507;-55
2022/03/25 11:30:13;;;;;;;59.25;36.78;;;16.80;75.30;;;;;;5013092;28;20046;-55
2022/03/25 11:32:57;;;;;;;52.72;36.53;;;16.90;75.90;;;;;;5012878;28;20072;-55
2022/03/25 11:35:24;;;;;;;56.65;35.90;;;16.90;75.00;;;;;;5011570;28;20072;-56
2022/03/25 11:38:09;;;;;;;57.63;37.05;;;17.00;74.80;;;;;;5012910;28;20042;-56
2022/03/25 11:40:44;;;;;;;60.63;38.40;;;17.00;74.00;;;;;;5012605;28;20046;-56
2022/03/25 11:43:22;;;;;;;52.15;36.35;;;17.10;75.90;;;;;;5012539;28;20046;-53
2022/03/25 11:46:00;;;;;;;56.67;38.45;;;17.20;74.20;;;;;;5012621;28;20037;-57
2022/03/25 11:48:25;;;;;;;54.40;35.45;;;17.20;73.40;;;;;;5012923;28;20049;-54
2022/03/25 11:50:54;;;;;;;55.28;36.05;;;17.20;73.50;;;;;;5013060;28;20041;-55
2022/03/25 11:53:21;;;;;;;50.53;35.17;;;17.20;73.30;;;;;;5012284;28;20045;-57
2022/03/25 11:56:01;;;;;;;55.65;34.67;;;17.20;73.40;;;;;;5012475;28;20050;-57
2022/03/25 11:58:30;;;;;;;49.40;36.63;;;17.30;73.00;;;;;;5012530;28;20038;-56
2022/03/25 12:01:06;;;;;;;52.78;37.10;;;17.30;71.90;;;;;;5012402;28;20475;-57
2022/03/25 12:03:53;;;;;;;48.72;32.95;;;17.30;71.10;;;;;;5012376;28;20045;-57
2022/03/25 12:06:25;;;;;;;49.88;34.13;;;17.40;72.30;;;;;;5012028;28;20113;-57
2022/03/25 12:08:58;;;;;;;50.97;34.55;;;17.50;71.90;;;;;;5012735;28;20045;-57
2022/03/25 12:11:51;;;;;;;46.70;32.97;;;17.60;70.20;;;;;;5012461;28;20066;-57
2022/03/25 12:14:33;;;;;;;50.70;33.80;;;17.60;71.00;;;;;;5011697;28;20042;-57
2022/03/25 12:17:04;;;;;;;50.13;32.63;;;17.70;71.10;;;;;;5011979;28;20056;-55
2022/03/25 12:19:29;;;;;;;47.47;30.58;;;17.90;70.10;;;;;;5012068;28;20054;-55
2022/03/25 12:22:03;;;;;;;48.53;30.35;;;18.00;70.60;;;;;;5011973;28;20157;-58
2022/03/25 12:24:31;;;;;;;46.40;32.03;;;18.10;70.10;;;;;;5011798;28;20053;-57
2022/03/25 12:27:02;;;;;;;49.15;32.00;;;18.30;70.60;;;;;;5011404;28;20053;-58
2022/03/25 12:29:37;;;;;;;44.15;30.73;;;18.40;68.30;;;;;;5012052;28;20038;-58
2022/03/25 12:32:05;;;;;;;45.40;29.95;;;18.40;66.80;;;;;;5004442;28;20048;-57
2022/03/25 12:34:36;;;;;;;46.92;29.33;;;18.40;68.70;;;;;;4993131;28;20044;-57
2022/03/25 12:37:03;;;;;;;47.22;29.30;;;18.50;68.00;;;;;;5002296;28;20458;-57
2022/03/25 12:39:29;;;;;;;44.35;27.73;;;18.50;66.60;;;;;;5010993;28;20056;-58
2022/03/25 12:41:55;;;;;;;45.15;30.85;;;18.60;66.90;;;;;;5007016;28;20391;-57